Whale Point, California Weather observations

Data are for observation ending at time listed.
 Day   Time    Ave.   Ave.  Ave.  Vector   Max.   Stn.    Total    Solar   Ave.  
  of    of     Air    Rel.  Wind   Wind    Wind   Baro.  Precip.   Rad.    Soil  
Year   Day     Temp.  Hum.  Speed  Dir.    Gust   Pres.                    Temp. 
2015   (PST)    F      %     mph   deg.    mph     mb.     in.     W/m2     F   
------------------------------------------------------------------------------
 180    0:00   56.0    93    3.7    72      7.2   993.6    0.00       0    75.6
 180    0:10   55.6    93    3.6    54      5.8   993.6    0.00       0    75.5
 180    0:20   55.6    93    0.8   100      1.8   993.2    0.00       0    75.4
 180    0:30   55.9    93    2.2    40      3.5   993.6    0.00       0    75.3
 180    0:40   55.8    92    2.9    48      4.7   993.6    0.00       0    75.2
 180    0:50   55.5    93    1.3   108      3.4   993.2    0.00       0    75.1
 180    1:00   55.7    93    1.0   180      2.9   993.2    0.00       0    75.0
 180    1:10   55.7    93    0.3   129      2.6   993.2    0.00       0    75.0
 180    1:20   55.3    93    0.6    33      1.5   993.2    0.00       0    74.9
 180    1:30   55.4    93    1.4   122      5.0   993.2    0.00       0    74.8
 180    1:40   55.6    94    2.3    24      4.5   993.2    0.00       0    74.7
 180    1:50   55.5    94    2.0    43      5.3   993.2    0.00       0    74.6
 180    2:00   55.5    94    1.8   203      3.7   993.2    0.00       0    74.5
 180    2:10   55.5    94    1.7   356      3.5   993.2    0.00       0    74.4
 180    2:20   55.4    94    2.4    44      4.4   992.9    0.00       0    74.3
 180    2:30   55.0    94    1.1   151      3.8   992.9    0.00       0    74.3
 180    2:40   55.1    94    1.0   103      2.9   992.9    0.00       0    74.2
 180    2:50   55.2    94    0.7   100      2.8   992.9    0.00       0    74.1
 180    3:00   55.1    94    0.4    66      1.9   992.9    0.00       0    74.0
 180    3:10   54.9    94    1.7    44      4.2   992.9    0.00       0    74.0
 180    3:20   54.9    94    1.7    27      5.3   992.9    0.00       0    73.9
 180    3:30  99999.0   99999  99999.0   99999    99999.0   99999.0   99999.00   99999    99999.0
 180    3:40   54.9    94    1.9   189      6.6   992.9    0.00       0    73.7
 180    3:50   54.9    94    1.3   166      3.8   992.9    0.00       0    73.7
 180    4:00   54.8    94    1.3    43      2.6   992.9    0.00       0    73.6
 180    4:10   54.6    94    0.8   186      2.3   992.9    0.00       0    73.5
 180    4:20   54.6    94    1.2    29      3.7   992.9    0.00       0    73.5
 180    4:30   54.4    94    1.9    12      3.5   993.2    0.00       0    73.4
 180    4:40   54.4    95    1.5    30      3.1   993.2    0.00       0    73.3
 180    4:50   54.3    95    1.7     6      3.0   993.2    0.00       1    73.2
 180    5:00   54.2    95    2.2   360      3.6   993.2    0.00       3    73.2
 180    5:10   54.2    95    3.1    25      4.9   993.2    0.00       8    73.1
 180    5:20   54.0    95    1.7    41      3.7   993.2    0.00      14    73.1
 180    5:30   54.1    95    1.5    59      4.0   993.2    0.00      16    73.0
 180    5:40   54.3    95    1.4    13      4.3   993.2    0.00      18    72.9
 180    5:50   54.3    95    0.7   347      1.8   993.2    0.00      29    72.9
 180    6:00   54.4    95    0.1   345      0.9   993.6    0.00      22    72.8
 180    6:10   54.4    95    0.5   244      1.4   993.6    0.00      35    72.7
 180    6:20   54.5    95    1.5   232      3.9   993.6    0.00      71    72.7
 180    6:30   54.6    95    2.0   236      4.7   993.6    0.00      64    72.6
 180    6:40   54.8    95    0.9   223      2.3   993.6    0.00      93    72.6
 180    6:50   54.9    95    1.8   217      3.2   993.6    0.00     122    72.5
 180    7:00   54.9    95    1.5   236      3.0   993.2    0.00     142    72.4
 180    7:10   55.0    95    2.4   226      3.6   993.6    0.00     143    72.4
 180    7:20   54.9    95    2.7   223      3.7   993.6    0.00     171    72.3
 180    7:30   55.3    95    3.3   220      4.7   993.6    0.00     236    72.3
 180    7:40   55.4    94    3.5   213      5.5   993.9    0.00     205    72.2
 180    7:50   55.5    94    3.2   213      5.4   993.9    0.00     250    72.2
 180    8:00   55.4    93    3.2   228      4.7   993.9    0.00     254    72.1
 180    8:10   55.6    93    3.5   224      5.0   993.9    0.00     252    72.1
 180    8:20   55.8    93    2.8   220      4.7   993.9    0.00     373    72.1
 180    8:30   56.2    92    3.8   214      5.4   993.9    0.00     317    72.0
 180    8:40   56.7    91    3.7   213      5.0   993.9    0.00     338    72.0
 180    8:50   56.5    91    4.0   218      5.6   993.9    0.00     349    72.0
 180    9:00   56.7    90    4.0   219      6.0   993.9    0.00     378    72.0
 180    9:10   56.4    91    3.7   225      5.3   993.9    0.00     402    72.0
 180    9:20   56.8    91    3.9   214      5.8   993.9    0.00     483    72.0
 180    9:30   57.7    88    3.9   209      5.6   993.6    0.00     493    72.0
 180    9:40   58.0    87    4.6   212      6.5   993.6    0.00     609    72.0
 180    9:50   58.1    87    4.8   219      8.1   993.6    0.00     779    72.0
 180   10:00   57.6    88    5.5   223      8.0   993.6    0.00     813    72.0
 180   10:10   57.5    89    5.4   224      8.2   993.6    0.00     834    72.0
 180   10:20   57.9    88    3.7   205      5.8   993.6    0.00     869    72.0
 180   10:30   61.1    82    3.3   200      6.4   993.6    0.00     918    72.1
 180   10:40   61.4    79    4.4   210      6.1   993.9    0.00     931    72.1
 180   10:50   60.1    82    4.5   198      7.0   993.9    0.00     940    72.2
 180   11:00   60.7    80    5.2   204      7.7   993.9    0.00     907    72.2
 180   11:10   59.6    83    4.9   219      8.3   993.6    0.00     856    72.3
 180   11:20   59.7    83    4.2   215      8.4   993.6    0.00    1007    72.3
 180   11:30   60.6    82    4.8   206      8.3   993.6    0.00     917    72.4
 180   11:40   60.5    81    5.3   209      8.6   993.6    0.00     885    72.5
 180   11:50   60.2    81    5.5   209      9.1   993.2    0.00     944    72.6
 180   12:00   60.4    82    4.6   206      7.3   993.2    0.00     958    72.7
 180   12:10   61.0    80    5.0   218      7.3   993.2    0.00     975    72.8
 180   12:20   61.4    79    5.0   215      7.4   993.2    0.00     971    72.8
 180   12:30   62.2    76    5.1   204      8.0   993.2    0.00     966    73.0
 180   12:40   62.9    75    4.9   208      8.0   992.9    0.00     959    73.1
 180   12:50   64.2    72    5.3   198      7.8   992.9    0.00     951    73.2
 180   13:00   62.7    75    5.0   224      8.7   992.9    0.00     941    73.3
 180   13:10   61.9    76    5.1   220      9.1   992.9    0.00     930    73.4
 180   13:20   62.4    75    5.2   212      9.1   992.9    0.00     918    73.6
 180   13:30   62.7    74    4.6   212      8.8   992.9    0.00     907    73.7
 180   13:40   63.5    72    4.8   220      8.3   992.6    0.00     892    73.9
 180   13:50   63.4    72    4.5   215      8.0   992.6    0.00     877    74.0
 180   14:00   63.2    73    5.2   225      8.7   992.6    0.00     860    74.2
 180   14:10   62.3    74    5.1   227      8.7   992.2    0.00     840    74.4
 180   14:20   62.8    74    5.4   222      9.5   992.2    0.00     821    74.6
 180   14:30   63.5    72    5.0   220      9.1   992.2    0.00     801    74.8
 180   14:40   63.3    72    5.2   219      8.0   992.2    0.00     778    74.9
 180   14:50   63.2    73    5.1   218      8.6   991.9    0.00     754    75.1
 180   15:00   63.4    72    4.8   219      9.3   991.9    0.00     730    75.3
 180   15:10   63.5    72    5.0   214      8.6   991.9    0.00     705    75.5
 180   15:20   63.2    72    5.7   224     10.4   991.5    0.00     678    75.7
 180   15:30   63.6    71    6.0   221      9.1   991.5    0.00     652    75.9
 180   15:40  99999.0   99999  99999.0   99999    99999.0   99999.0   99999.00   99999    99999.0
 180   15:50  99999.0   99999  99999.0   99999    99999.0   99999.0   99999.00   99999    99999.0
 180   16:00  99999.0   99999  99999.0   99999    99999.0   99999.0   99999.00   99999    99999.0
 180   16:10  99999.0   99999  99999.0   99999    99999.0   99999.0   99999.00   99999    99999.0
 180   16:20  99999.0   99999  99999.0   99999    99999.0   99999.0   99999.00   99999    99999.0
 180   16:30  99999.0   99999  99999.0   99999    99999.0   99999.0   99999.00   99999    99999.0
 180   16:40  99999.0   99999  99999.0   99999    99999.0   99999.0   99999.00   99999    99999.0
 180   16:50  99999.0   99999  99999.0   99999    99999.0   99999.0   99999.00   99999    99999.0
 180   17:00  99999.0   99999  99999.0   99999    99999.0   99999.0   99999.00   99999    99999.0
 180   17:10  99999.0   99999  99999.0   99999    99999.0   99999.0   99999.00   99999    99999.0
 180   17:20  99999.0   99999  99999.0   99999    99999.0   99999.0   99999.00   99999    99999.0
 180   17:30  99999.0   99999  99999.0   99999    99999.0   99999.0   99999.00   99999    99999.0
 180   17:40   63.5    71    2.1   237      3.8   990.5   23.40     148    356.0
 180   17:50  99999.0   99999  99999.0   99999    99999.0   99999.0   99999.00   99999    99999.0
 180   18:00  99999.0   99999  99999.0   99999    99999.0   99999.0   99999.00   99999    99999.0
 180   18:10  99999.0   99999  99999.0   99999    99999.0   99999.0   99999.00   99999    99999.0
 180   18:20  99999.0   99999  99999.0   99999    99999.0   99999.0   99999.00   99999    99999.0
 180   18:30  99999.0   99999  99999.0   99999    99999.0   99999.0   99999.00   99999    99999.0
 180   18:40   63.7    70    0.9   290      3.1   990.2    0.00      92    78.7
 180   18:50   62.8    71    1.3   205      4.3   990.2    0.00      71    78.7
 180   19:00   62.3    72    0.7   314      1.9   990.2    0.00      50    78.8
 180   19:10   60.7    76    2.2   194      5.8   990.2    0.00      26    78.9
 180   19:20   58.7    81    2.4   181      7.1   990.5    0.00      11    79.0
 180   19:30   57.9    82    1.6   174      4.2   990.5    0.00       6    79.1
 180   19:40   57.2    85    3.6   169      8.4   990.5    0.00       2    79.1
 180   19:50   57.0    86    1.1   180      3.8   990.5    0.00       1    79.1
 180   20:00   56.9    86    0.5   333      2.5   990.5    0.00       0    79.1
 180   20:10   56.7    86    0.7   311      2.3   990.5    0.00       0    79.1
 180   20:20   56.4    86    0.3   348      1.2   990.5    0.00       0    79.1
 180   20:30   56.2    87    0.8    10      1.9   990.5    0.00       0    79.1
 180   20:40   56.0    88    0.8    50      2.2   990.5    0.00       0    79.1
 180   20:50   55.8    88    0.9    10      2.5   990.9    0.00       0    79.1
 180   21:00   57.2    86    3.1    13      5.2   990.9    0.00       0    79.1
 180   21:10   59.8    79    2.3   358      4.2   991.2    0.00       0    79.0
 180   21:20   60.5    77    1.6   358      3.9   991.2    0.00       0    78.9
 180   21:30   61.2    75    3.2   344      5.8   991.2    0.00       0    78.9
 180   21:40   61.9    73    2.1   186      3.9   991.2    0.00       0    78.8
 180   21:50   60.7    76    1.2   134      3.7   991.5    0.00       0    78.8
 180   22:00   60.8    76    1.1   160      3.1   991.5    0.00       0    78.7
 180   22:10   60.4    77    1.1   161      2.6   991.5    0.00       0    78.6
 180   22:20   60.3    78    2.2   202      4.4   991.2    0.00       0    78.5
 180   22:30   60.4    77    0.8    34      1.9   991.2    0.00       0    78.5
 180   22:40   59.8    78    1.0    22      3.6   991.2    0.00       0    78.4
 180   22:50   59.2    80    1.8    16      4.3   991.5    0.00       0    78.3
 180   23:00   59.5    79    0.8   296      3.5   991.5    0.00       0    78.2
 180   23:10   59.2    80    1.2   359      2.4   991.5    0.00       0    78.1
 180   23:20   59.4    80    2.0     6      2.6   991.5    0.00       0    78.1
 180   23:30   59.9    79    0.5   344      2.5   991.5    0.00       0    78.0

Return to Whale Point graphs page.


Western Regional Climate Center,wrcc@dri.edu